Time;durP1;ratioP1;P1;durP2;ratioP2;P2;SDS_P1;SDS_P2;PMS_P1;PMS_P2;Temp;Humidity;BMP_temperature;BMP_pressure;BME280_temperature;BME280_humidity;BME280_pressure;Samples;Min_cycle;Max_cycle;Signal;HPM_P1;HPM_P2
2022/05/28 00:00:56;;;;;;;;;;;;;;;11.13;61.82;102149.91;5076692;28;20341;-58
2022/05/28 00:03:22;;;;;;;;;;;;;;;11.08;61.26;102147.66;5073665;28;20297;-58
2022/05/28 00:05:47;;;;;;;;;;;;;;;11.08;61.32;102142.34;5076552;28;19924;-58
2022/05/28 00:08:13;;;;;;;;;;;;;;;11.06;61.79;102136.34;5078465;28;19920;-58
2022/05/28 00:10:38;;;;;;;;;;;;;;;11.02;62.48;102145.53;5084978;28;19969;-58
2022/05/28 00:13:03;;;;;;;;;;;;;;;11.01;61.79;102143.84;5060466;28;19921;-58
2022/05/28 00:15:29;;;;;;;;;;;;;;;11.05;62.13;102141.78;5082764;28;19929;-58
2022/05/28 00:17:54;;;;;;;;;;;;;;;11.00;62.30;102131.56;5079597;28;20409;-58
2022/05/28 00:20:19;;;;;;;;;;;;;;;11.00;62.19;102131.56;5071916;28;20367;-58
2022/05/28 00:22:45;;;;;;;;;;;;;;;10.98;62.83;102129.03;5074587;28;19924;-58
2022/05/28 00:25:14;;;;;;;;;;;;;;;10.94;62.22;102134.72;5078671;28;20334;-59
2022/05/28 00:27:40;;;;;;;;;;;;;;;10.94;62.29;102124.09;5077585;28;19987;-59
2022/05/28 00:30:06;;;;;;;;;;;;;;;10.99;63.00;102132.50;5082909;28;20402;-59
2022/05/28 00:32:33;;;;;;;;;;;;;;;10.96;62.95;102123.00;5076381;28;21394;-59
2022/05/28 00:34:58;;;;;;;;;;;;;;;10.98;62.20;102125.53;5075535;28;19924;-58
2022/05/28 00:37:24;;;;;;;;;;;;;;;10.97;62.75;102123.84;5081208;28;19959;-58
2022/05/28 00:39:49;;;;;;;;;;;;;;;10.99;62.78;102116.59;5075788;28;19924;-58
2022/05/28 00:42:14;;;;;;;;;;;;;;;11.01;62.57;102127.94;5079553;28;19927;-59
2022/05/28 00:44:39;;;;;;;;;;;;;;;11.03;62.72;102124.16;5075920;28;19928;-58
2022/05/28 00:47:05;;;;;;;;;;;;;;;11.06;63.55;102123.06;5075042;28;19921;-58
2022/05/28 00:49:32;;;;;;;;;;;;;;;10.98;63.19;102123.72;5077015;28;19930;-58
2022/05/28 00:52:01;;;;;;;;;;;;;;;11.01;63.73;102122.63;5073972;28;19924;-58
2022/05/28 00:54:30;;;;;;;;;;;;;;;11.01;64.16;102119.97;5072135;28;19924;-58
2022/05/28 00:56:56;;;;;;;;;;;;;;;10.96;63.73;102117.69;5078614;28;19990;-59
2022/05/28 00:59:21;;;;;;;;;;;;;;;10.98;64.86;102122.88;5069403;28;20363;-58
2022/05/28 01:01:46;;;;;;;;;;;;;;;10.92;64.22;102112.78;5073004;28;19929;-58
2022/05/28 01:04:21;;;;;;;;;;;;;;;10.93;64.76;102117.97;5065520;28;20372;-59
2022/05/28 01:06:46;;;;;;;;;;;;;;;10.93;65.15;102117.13;5072503;28;20027;-58
2022/05/28 01:09:33;;;;;;;;;;;;;;;10.83;65.01;102112.63;5074757;28;19981;-58
2022/05/28 01:12:20;;;;;;;;;;;;;;;10.81;64.97;102111.88;5083526;28;19920;-59
2022/05/28 01:15:17;;;;;;;;;;;;;;;10.76;65.39;102106.16;5080590;28;19921;-58
2022/05/28 01:17:45;;;;;;;;;;;;;;;10.72;64.93;102104.72;5035595;28;20389;-58
2022/05/28 01:20:30;;;;;;;;;;;;;;;10.72;64.89;102104.72;5066762;28;20490;-58
2022/05/28 01:22:58;;;;;;;;;;;;;;;10.75;66.27;102105.31;5067931;28;20310;-59
2022/05/28 01:25:23;;;;;;;;;;;;;;;10.77;65.12;102097.22;5082916;28;19927;-58
2022/05/28 01:27:51;;;;;;;;;;;;;;;10.68;65.18;102100.66;5085874;28;19929;-58
2022/05/28 01:30:17;;;;;;;;;;;;;;;10.68;66.24;102095.34;5075720;28;19960;-58
2022/05/28 01:32:44;;;;;;;;;;;;;;;10.69;66.50;102094.38;5075378;28;20305;-58
2022/05/28 01:35:11;;;;;;;;;;;;;;;10.67;66.41;102097.16;5075692;28;20023;-58
2022/05/28 01:37:38;;;;;;;;;;;;;;;10.69;66.25;102091.72;5075056;28;19920;-58
2022/05/28 01:40:05;;;;;;;;;;;;;;;10.61;66.08;102087.91;5063118;28;20389;-58
2022/05/28 01:42:30;;;;;;;;;;;;;;;10.61;65.88;102092.38;5074762;28;19921;-59
2022/05/28 01:44:57;;;;;;;;;;;;;;;10.69;66.21;102089.06;5090961;28;19920;-59
2022/05/28 01:47:23;;;;;;;;;;;;;;;10.61;66.79;102090.56;5075645;28;19927;-58
2022/05/28 01:49:49;;;;;;;;;;;;;;;10.61;66.14;102098.53;5072017;28;19924;-58
2022/05/28 01:52:15;;;;;;;;;;;;;;;10.59;66.10;102096.97;5068076;28;19964;-58
2022/05/28 01:54:43;;;;;;;;;;;;;;;10.58;66.33;102090.84;5072804;28;19928;-58
2022/05/28 01:57:08;;;;;;;;;;;;;;;10.52;66.77;102091.38;5072273;28;19931;-58
2022/05/28 01:59:35;;;;;;;;;;;;;;;10.47;66.99;102096.22;5072336;28;20493;-58
2022/05/28 02:02:03;;;;;;;;;;;;;;;10.43;66.30;102095.63;5069140;28;19920;-59
2022/05/28 02:04:29;;;;;;;;;;;;;;;10.41;67.12;102091.41;5073598;28;19921;-58
2022/05/28 02:06:55;;;;;;;;;;;;;;;10.40;67.49;102095.03;5070748;28;20274;-58
2022/05/28 02:09:28;;;;;;;;;;;;;;;10.42;67.12;102103.69;5072368;28;19921;-59
2022/05/28 02:12:12;;;;;;;;;;;;;;;10.40;66.84;102095.84;5070811;28;20437;-59
2022/05/28 02:14:52;;;;;;;;;;;;;;;10.36;67.06;102100.56;5076110;28;20029;-58
2022/05/28 02:17:18;;;;;;;;;;;;;;;10.31;66.75;102091.34;5071937;28;19944;-58
2022/05/28 02:19:49;;;;;;;;;;;;;;;10.28;67.25;102096.88;5072329;28;20011;-58
2022/05/28 02:22:14;;;;;;;;;;;;;;;10.25;67.76;102095.31;5072400;28;19921;-58
2022/05/28 02:24:41;;;;;;;;;;;;;;;10.20;67.31;102089.56;5071455;28;20051;-58
2022/05/28 02:27:14;;;;;;;;;;;;;;;10.21;67.43;102085.94;5071000;28;19928;-57
2022/05/28 02:29:40;;;;;;;;;;;;;;;10.20;67.35;102094.84;5069682;28;19932;-58
2022/05/28 02:32:19;;;;;;;;;;;;;;;10.18;67.63;102091.50;5079281;28;19920;-58
2022/05/28 02:34:45;;;;;;;;;;;;;;;10.14;67.29;102080.31;5077500;28;20433;-58
2022/05/28 02:37:11;;;;;;;;;;;;;;;10.15;68.11;102091.75;5072641;28;19947;-59
2022/05/28 02:39:36;;;;;;;;;;;;;;;10.17;67.81;102084.53;5051769;28;19977;-58
2022/05/28 02:42:01;;;;;;;;;;;;;;;10.17;68.66;102085.34;5071361;28;20328;-58
2022/05/28 02:44:28;;;;;;;;;;;;;;;10.12;68.43;102081.41;5073761;28;19925;-58
2022/05/28 02:46:53;;;;;;;;;;;;;;;10.08;68.78;102081.66;5071033;28;19999;-58
2022/05/28 02:49:18;;;;;;;;;;;;;;;10.07;68.40;102079.16;5072324;28;20106;-59
2022/05/28 02:51:43;;;;;;;;;;;;;;;10.05;68.43;102071.31;5049338;28;19920;-59
2022/05/28 02:54:08;;;;;;;;;;;;;;;10.03;68.82;102075.06;5072700;28;20298;-58
2022/05/28 02:56:34;;;;;;;;;;;;;;;9.99;68.43;102076.28;5072050;28;20038;-58
2022/05/28 02:58:59;;;;;;;;;;;;;;;9.94;68.59;102074.03;5072540;28;19955;-58
2022/05/28 03:01:24;;;;;;;;;;;;;;;9.92;68.95;102065.38;5082492;28;19927;-58
2022/05/28 03:03:49;;;;;;;;;;;;;;;9.93;69.19;102072.34;5072969;28;19927;-58
2022/05/28 03:06:15;;;;;;;;;;;;;;;9.89;68.93;102065.59;5070988;28;19928;-58
2022/05/28 03:08:40;;;;;;;;;;;;;;;9.89;68.97;102068.25;5082749;28;20344;-57
2022/05/28 03:11:05;;;;;;;;;;;;;;;9.90;69.04;102067.28;5070727;28;19927;-58
2022/05/28 03:13:31;;;;;;;;;;;;;;;9.93;69.09;102072.34;5071470;28;19928;-58
2022/05/28 03:15:56;;;;;;;;;;;;;;;9.89;69.18;102070.91;5077570;28;19978;-58
2022/05/28 03:18:21;;;;;;;;;;;;;;;9.92;69.49;102065.38;5071052;28;20274;-57
2022/05/28 03:20:46;;;;;;;;;;;;;;;9.91;69.65;102067.16;5081538;28;19958;-58
2022/05/28 03:23:11;;;;;;;;;;;;;;;9.88;69.52;102069.22;5070167;28;20290;-58
2022/05/28 03:25:36;;;;;;;;;;;;;;;9.86;69.15;102071.19;5070434;28;19921;-58
2022/05/28 03:28:02;;;;;;;;;;;;;;;9.86;69.88;102076.47;5076037;28;19929;-58
2022/05/28 03:30:27;;;;;;;;;;;;;;;9.86;69.90;102071.19;5070211;28;20386;-58
2022/05/28 03:32:52;;;;;;;;;;;;;;;9.83;70.31;102078.38;5069997;28;19920;-58
2022/05/28 03:35:17;;;;;;;;;;;;;;;9.82;70.70;102076.72;5069899;28;19927;-57
2022/05/28 03:37:43;;;;;;;;;;;;;;;9.77;70.07;102078.06;5047160;28;20385;-58
2022/05/28 03:40:08;;;;;;;;;;;;;;;9.76;70.16;102077.22;5062545;28;20023;-57
2022/05/28 03:42:33;;;;;;;;;;;;;;;9.75;70.40;102074.69;5069313;28;19920;-56
2022/05/28 03:44:58;;;;;;;;;;;;;;;9.75;70.95;102074.69;5070744;28;19924;-58
2022/05/28 03:47:24;;;;;;;;;;;;;;;9.74;70.61;102081.81;5081993;28;19916;-58
2022/05/28 03:49:49;;;;;;;;;;;;;;;9.74;70.47;102076.50;5069578;28;19939;-58
2022/05/28 03:52:14;;;;;;;;;;;;;;;9.73;70.71;102082.78;5072042;28;20493;-57
2022/05/28 03:54:43;;;;;;;;;;;;;;;9.75;70.31;102085.28;5070142;28;20003;-58
2022/05/28 03:57:11;;;;;;;;;;;;;;;9.74;70.41;102084.47;5072077;28;19921;-58
2022/05/28 03:59:36;;;;;;;;;;;;;;;9.75;70.12;102088.78;5066638;28;19920;-57
2022/05/28 04:02:03;;;;;;;;;;;;;;;9.77;70.10;102089.50;5069525;28;19973;-58
2022/05/28 04:04:28;;;;;;;;;;;;;;;9.79;70.49;102087.56;5070351;28;20013;-58
2022/05/28 04:06:53;;;;;;;;;;;;;;;9.81;70.45;102096.22;5071528;28;20547;-57
2022/05/28 04:09:18;;;;;;;;;;;;;;;9.81;70.31;102090.94;5071387;28;19923;-58
2022/05/28 04:11:44;;;;;;;;;;;;;;;9.83;70.91;102083.69;5072979;28;20349;-58
2022/05/28 04:14:09;;;;;;;;;;;;;;;9.89;69.91;102092.09;5071822;28;20543;-57
2022/05/28 04:16:35;;;;;;;;;;;;;;;9.87;70.87;102094.88;5069521;28;19920;-58
2022/05/28 04:19:00;;;;;;;;;;;;;;;9.88;71.59;102090.44;5074564;28;19966;-56
2022/05/28 04:21:25;;;;;;;;;;;;;;;9.90;71.57;102099.06;5070588;28;20003;-58
2022/05/28 04:23:50;;;;;;;;;;;;;;;9.85;70.92;102095.97;5071727;28;19928;-57
2022/05/28 04:26:15;;;;;;;;;;;;;;;9.83;70.73;102099.59;5072013;28;19924;-57
2022/05/28 04:28:41;;;;;;;;;;;;;;;9.83;71.02;102099.59;5074404;28;20352;-57
2022/05/28 04:31:06;;;;;;;;;;;;;;;9.85;72.16;102109.22;5074098;28;19921;-58
2022/05/28 04:33:31;;;;;;;;;;;;;;;9.87;72.03;102109.94;5077733;28;20408;-58
2022/05/28 04:35:56;;;;;;;;;;;;;;;9.89;72.14;102102.69;5074028;28;19927;-57
2022/05/28 04:38:23;;;;;;;;;;;;;;;9.90;72.21;102109.69;5075760;28;19924;-58
2022/05/28 04:40:48;;;;;;;;;;;;;;;9.93;71.44;102101.50;5078150;28;19926;-58
2022/05/28 04:43:13;;;;;;;;;;;;;;;9.98;71.67;102109.91;5072175;28;20282;-58
2022/05/28 04:45:39;;;;;;;;;;;;;;;10.01;71.57;102107.00;5069591;28;19977;-57
2022/05/28 04:48:04;;;;;;;;;;;;;;;10.01;71.83;102109.63;5075221;28;19974;-58
2022/05/28 04:50:29;;;;;;;;;;;;;;;10.03;71.79;102113.03;5074590;28;20346;-58
2022/05/28 04:52:55;;;;;;;;;;;;;;;10.08;72.38;102108.16;5077515;28;19966;-58
2022/05/28 04:55:20;;;;;;;;;;;;;;;10.08;72.75;102110.00;5075410;28;19985;-58
2022/05/28 04:57:45;;;;;;;;;;;;;;;10.09;73.60;102109.88;5076925;28;20038;-59
2022/05/28 05:00:13;;;;;;;;;;;;;;;10.09;72.21;102115.16;5056461;28;20320;-58
2022/05/28 05:02:38;;;;;;;;;;;;;;;10.14;72.08;102119.22;5065012;28;19928;-57
2022/05/28 05:05:03;;;;;;;;;;;;;;;10.19;72.56;102117.91;5074333;28;19920;-58
2022/05/28 05:07:28;;;;;;;;;;;;;;;10.25;72.57;102129.78;5074358;28;19928;-57
2022/05/28 05:09:54;;;;;;;;;;;;;;;10.32;72.31;102125.66;5079914;28;20574;-58
2022/05/28 05:12:19;;;;;;;;;;;;;;;10.36;72.97;102127.09;5090548;28;19998;-57
2022/05/28 05:14:44;;;;;;;;;;;;;;;10.41;73.32;102128.53;5079831;28;20409;-57
2022/05/28 05:17:09;;;;;;;;;;;;;;;10.47;73.34;102122.72;5074148;28;19920;-57
2022/05/28 05:19:34;;;;;;;;;;;;;;;10.53;72.93;102124.88;5074549;28;19920;-57
2022/05/28 05:22:00;;;;;;;;;;;;;;;10.56;73.36;102121.13;5087499;28;20459;-56
2022/05/28 05:24:25;;;;;;;;;;;;;;;10.68;74.88;102127.19;5074598;28;19916;-57
2022/05/28 05:26:50;;;;;;;;;;;;;;;10.71;74.17;102135.72;5074009;28;20451;-58
2022/05/28 05:29:15;;;;;;;;;;;;;;;10.76;74.96;102132.69;5073355;28;19972;-57
2022/05/28 05:31:42;;;;;;;;;;;;;;;10.83;74.70;102133.00;5075656;28;19921;-57
2022/05/28 05:34:07;;;;;;;;;;;;;;;10.87;74.82;102129.09;5083483;28;19973;-57
2022/05/28 05:36:32;;;;;;;;;;;;;;;10.97;74.56;102140.63;5091401;28;19923;-59
2022/05/28 05:38:58;;;;;;;;;;;;;;;11.02;74.70;102137.56;5071822;28;19920;-58
2022/05/28 05:41:23;;;;;;;;;;;;;;;11.11;75.00;102135.94;5074373;28;20007;-58
2022/05/28 05:43:48;;;;;;;;;;;;;;;11.27;74.95;102138.09;5080564;28;19959;-58
2022/05/28 05:46:14;;;;;;;;;;;;;;;11.32;74.70;102137.69;5079777;28;19931;-58
2022/05/28 05:48:39;;;;;;;;;;;;;;;11.52;73.86;102142.09;5094144;28;19916;-59
2022/05/28 05:51:05;;;;;;;;;;;;;;;11.48;73.81;102138.00;5070425;28;20054;-59
2022/05/28 05:53:31;;;;;;;;;;;;;;;11.54;73.43;102144.59;5080726;28;19920;-59
2022/05/28 05:55:56;;;;;;;;;;;;;;;11.64;73.40;102142.81;5078167;28;19952;-59
2022/05/28 05:58:21;;;;;;;;;;;;;;;11.70;73.03;102146.75;5071312;28;19924;-58
2022/05/28 06:00:46;;;;;;;;;;;;;;;11.81;73.21;102145.78;5072323;28;19967;-59
2022/05/28 06:03:15;;;;;;;;;;;;;;;12.01;72.11;102140.47;5073699;28;19920;-59
2022/05/28 06:05:40;;;;;;;;;;;;;;;12.02;71.70;102143.00;5081490;28;19936;-59
2022/05/28 06:08:05;;;;;;;;;;;;;;;12.07;70.88;102137.28;5078179;28;20318;-59
2022/05/28 06:10:30;;;;;;;;;;;;;;;12.14;71.55;102149.03;5072016;28;19954;-58
2022/05/28 06:12:56;;;;;;;;;;;;;;;12.41;70.38;102146.66;5073168;28;19999;-58
2022/05/28 06:15:21;;;;;;;;;;;;;;;12.46;69.41;102147.94;5073337;28;19917;-59
2022/05/28 06:17:48;;;;;;;;;;;;;;;12.59;68.68;102152.13;5073616;28;19921;-58
2022/05/28 06:20:13;;;;;;;;;;;;;;;12.59;68.13;102154.78;5052290;28;19925;-59
2022/05/28 06:22:38;;;;;;;;;;;;;;;12.56;67.46;102152.38;5072190;28;19925;-58
2022/05/28 06:25:04;;;;;;;;;;;;;;;12.46;67.84;102150.59;5086487;28;20408;-58
2022/05/28 06:27:30;;;;;;;;;;;;;;;12.39;67.68;102152.16;5072040;28;20278;-59
2022/05/28 06:29:55;;;;;;;;;;;;;;;12.54;67.43;102154.38;5074588;28;20015;-60
2022/05/28 06:32:21;;;;;;;;;;;;;;;12.51;67.32;102153.69;5077110;28;20415;-59
2022/05/28 06:34:46;;;;;;;;;;;;;;;12.61;65.87;102155.47;5078480;28;19923;-59
2022/05/28 06:37:12;;;;;;;;;;;;;;;12.61;65.90;102156.31;5090067;28;20332;-59
2022/05/28 06:39:37;;;;;;;;;;;;;;;12.57;66.25;102154.06;5082676;28;19920;-59
2022/05/28 06:42:03;;;;;;;;;;;;;;;12.62;66.48;102165.13;5065372;28;19955;-59
2022/05/28 06:44:28;;;;;;;;;;;;;;;12.68;66.49;102163.72;5086771;28;19951;-58
2022/05/28 06:46:53;;;;;;;;;;;;;;;12.76;66.72;102159.38;5075533;28;19954;-59
2022/05/28 06:49:18;;;;;;;;;;;;;;;12.80;65.17;102159.06;5071184;28;19970;-58
2022/05/28 06:51:44;;;;;;;;;;;;;;;12.76;63.99;102156.72;5072476;28;19916;-57
2022/05/28 06:54:09;;;;;;;;;;;;;;;12.84;64.12;102160.47;5072711;28;19917;-57
2022/05/28 06:56:34;;;;;;;;;;;;;;;12.68;64.08;102161.88;5072698;28;20474;-58
2022/05/28 06:58:59;;;;;;;;;;;;;;;12.85;62.88;102164.81;5069966;28;19920;-59
2022/05/28 07:01:25;;;;;;;;;;;;;;;12.89;63.29;102163.53;5069289;28;19974;-59
2022/05/28 07:03:50;;;;;;;;;;;;;;;12.94;63.05;102165.75;5076211;28;19920;-59
2022/05/28 07:06:15;;;;;;;;;;;;;;;13.07;61.61;102168.94;5070682;28;19950;-59
2022/05/28 07:08:40;;;;;;;;;;;;;;;13.01;60.76;102170.38;5069056;28;19920;-58
2022/05/28 07:11:06;;;;;;;;;;;;;;;12.89;62.30;102168.88;5078305;28;19929;-59
2022/05/28 07:13:32;;;;;;;;;;;;;;;12.96;63.20;102175.28;5072649;28;19917;-58
2022/05/28 07:15:57;;;;;;;;;;;;;;;13.35;59.93;102178.78;5067699;28;19921;-58
2022/05/28 07:18:22;;;;;;;;;;;;;;;13.29;60.68;102177.56;5069400;28;19959;-59
2022/05/28 07:20:48;;;;;;;;;;;;;;;13.39;59.74;102178.38;5071924;28;20334;-59
2022/05/28 07:23:17;;;;;;;;;;;;;;;13.45;59.31;102171.59;5070765;28;19917;-58
2022/05/28 07:25:43;;;;;;;;;;;;;;;13.53;58.84;102177.03;5072529;28;20422;-58
2022/05/28 07:30:56;;;;;;;;;;;;;;;13.48;59.80;102174.00;5070888;28;19927;-59
2022/05/28 07:33:21;;;;;;;;;;;;;;;13.53;59.17;102176.22;5079739;28;19916;-58
2022/05/28 07:35:47;;;;;;;;;;;;;;;13.75;59.17;102176.78;5078052;28;19916;-59
2022/05/28 07:38:12;;;;;;;;;;;;;;;13.66;60.22;102176.69;5058628;28;19962;-59
2022/05/28 07:40:37;;;;;;;;;;;;;;;13.76;60.39;102173.97;5070849;28;20286;-59
2022/05/28 07:43:03;;;;;;;;;;;;;;;13.93;59.95;102177.69;5070905;28;19978;-59
2022/05/28 07:45:29;;;;;;;;;;;;;;;13.97;57.66;102167.53;5072206;28;19921;-60
2022/05/28 07:47:54;;;;;;;;;;;;;;;14.09;57.36;102177.00;5071631;28;20385;-58
2022/05/28 07:50:20;;;;;;;;;;;;;;;14.04;56.91;102175.75;5076943;28;19920;-59
2022/05/28 07:52:47;;;;;;;;;;;;;;;13.92;56.89;102173.31;5074900;28;19926;-58
2022/05/28 07:55:13;;;;;;;;;;;;;;;14.32;55.66;102175.69;5078008;28;19973;-59
2022/05/28 07:57:38;;;;;;;;;;;;;;;14.09;56.03;102177.00;5073135;28;20584;-58
2022/05/28 08:00:04;;;;;;;;;;;;;;;14.11;56.38;102175.00;5071648;28;19927;-59
2022/05/28 08:02:29;;;;;;;;;;;;;;;14.19;56.43;102181.41;5073268;28;19924;-60
2022/05/28 08:04:54;;;;;;;;;;;;;;;14.28;56.09;102184.97;5080091;28;20417;-60
2022/05/28 08:07:19;;;;;;;;;;;;;;;14.42;54.18;102176.44;5082577;28;20294;-59
2022/05/28 08:09:45;;;;;;;;;;;;;;;14.25;55.45;102172.78;5074990;28;19924;-59
2022/05/28 08:12:11;;;;;;;;;;;;;;;14.39;55.06;102176.75;5076009;28;20405;-59
2022/05/28 08:14:36;;;;;;;;;;;;;;;14.45;55.59;102175.31;5077335;28;20015;-59
2022/05/28 08:17:01;;;;;;;;;;;;;;;14.37;54.82;102174.22;5075844;28;19935;-59
2022/05/28 08:19:26;;;;;;;;;;;;;;;14.15;56.27;102164.03;5066883;28;20287;-58
2022/05/28 08:24:37;;;;;;;;;;;;;;;13.99;55.45;102168.22;5066209;28;19947;-59
2022/05/28 08:27:02;;;;;;;;;;;;;;;13.97;55.85;102175.53;5067669;28;19944;-59
2022/05/28 08:29:27;;;;;;;;;;;;;;;14.08;56.01;102170.00;5068106;28;20009;-58
2022/05/28 08:31:52;;;;;;;;;;;;;;;14.04;56.56;102167.75;5070705;28;20355;-59
2022/05/28 08:34:17;;;;;;;;;;;;;;;14.00;56.01;102177.91;5070509;28;19925;-59
2022/05/28 08:36:43;;;;;;;;;;;;;;;14.11;54.91;102169.66;5067776;28;19924;-59
2022/05/28 08:39:08;;;;;;;;;;;;;;;14.17;55.62;102175.38;5068384;28;20360;-59
2022/05/28 08:41:42;;;;;;;;;;;;;;;14.26;55.20;102166.44;5068593;28;19916;-58
2022/05/28 08:44:15;;;;;;;;;;;;;;;14.23;55.36;102172.13;5072162;28;19928;-59
2022/05/28 08:46:41;;;;;;;;;;;;;;;14.23;55.37;102169.44;5062528;28;19917;-59
2022/05/28 08:49:08;;;;;;;;;;;;;;;14.41;55.77;102163.25;5065039;28;19932;-59
2022/05/28 08:51:34;;;;;;;;;;;;;;;14.65;53.30;102166.09;5064021;28;19927;-59
2022/05/28 08:54:03;;;;;;;;;;;;;;;14.72;53.05;102171.66;5070754;28;20271;-58
2022/05/28 08:56:30;;;;;;;;;;;;;;;14.71;53.97;102169.16;5064012;28;19986;-59
2022/05/28 08:59:05;;;;;;;;;;;;;;;14.95;52.89;102168.47;5063593;28;19927;-58
2022/05/28 09:01:32;;;;;;;;;;;;;;;14.90;54.04;102163.63;5057181;28;20557;-59
2022/05/28 09:04:00;;;;;;;;;;;;;;;15.04;53.80;102158.69;5066093;28;19939;-59
2022/05/28 09:06:25;;;;;;;;;;;;;;;15.09;53.39;102167.06;5063267;28;19916;-59
2022/05/28 09:08:52;;;;;;;;;;;;;;;15.13;52.32;102168.44;5065398;28;19916;-59
2022/05/28 09:11:33;;;;;;;;;;;;;;;15.03;52.33;102165.03;5066351;28;20417;-60
2022/05/28 09:13:59;;;;;;;;;;;;;;;14.85;52.66;102170.44;5064283;28;20710;-59
2022/05/28 09:16:27;;;;;;;;;;;;;;;14.77;53.77;102169.38;5063631;28;19956;-59
2022/05/28 09:18:54;;;;;;;;;;;;;;;15.01;52.97;102175.03;5065349;28;20000;-59
2022/05/28 09:21:21;;;;;;;;;;;;;;;14.80;54.19;102168.22;5067905;28;19928;-59
2022/05/28 09:23:53;;;;;;;;;;;;;;;15.10;53.06;102167.91;5064294;28;19928;-59
2022/05/28 09:26:25;;;;;;;;;;;;;;;14.93;54.36;102166.00;5065354;28;19916;-58
2022/05/28 09:29:00;;;;;;;;;;;;;;;15.11;53.08;102158.91;5069222;28;19917;-58
2022/05/28 09:31:28;;;;;;;;;;;;;;;15.27;53.06;102168.81;5072330;28;19928;-59
2022/05/28 09:34:12;;;;;;;;;;;;;;;15.27;50.62;102163.47;5064083;28;19924;-57
2022/05/28 09:36:37;;;;;;;;;;;;;;;15.33;49.64;102162.84;5068555;28;19940;-58
2022/05/28 09:39:21;;;;;;;;;;;;;;;15.40;49.64;102166.53;5067769;28;20367;-57
2022/05/28 09:41:56;;;;;;;;;;;;;;;15.28;49.79;102157.13;5066447;28;19921;-57
2022/05/28 09:44:24;;;;;;;;;;;;;;;15.42;50.49;102156.53;5066625;28;20423;-57
2022/05/28 09:46:50;;;;;;;;;;;;;;;15.36;49.43;102162.53;5065613;28;19947;-59
2022/05/28 09:49:23;;;;;;;;;;;;;;;15.19;50.26;102162.44;5066401;28;19920;-58
2022/05/28 09:51:59;;;;;;;;;;;;;;;15.13;50.27;102156.91;5062840;28;19920;-59
2022/05/28 09:54:27;;;;;;;;;;;;;;;15.18;50.54;102144.75;5057611;28;19931;-58
2022/05/28 09:56:52;;;;;;;;;;;;;;;15.30;51.55;102152.47;5069271;28;20007;-59
2022/05/28 09:59:23;;;;;;;;;;;;;;;15.48;50.18;102149.69;5056716;28;19964;-60
2022/05/28 10:02:11;;;;;;;;;;;;;;;15.30;50.78;102157.81;5066479;28;19986;-58
2022/05/28 10:04:55;;;;;;;;;;;;;;;15.16;52.15;102151.25;5069289;28;20350;-59
2022/05/28 10:07:35;;;;;;;;;;;;;;;15.31;52.45;102148.81;5065958;28;19920;-58
2022/05/28 10:10:01;;;;;;;;;;;;;;;15.46;51.23;102144.50;5069976;28;19917;-59
2022/05/28 10:12:28;;;;;;;;;;;;;;;15.56;50.69;102146.22;5065286;28;20270;-59
2022/05/28 10:14:57;;;;;;;;;;;;;;;15.64;51.93;102134.72;5065125;28;19924;-60
2022/05/28 10:17:25;;;;;;;;;;;;;;;15.71;50.55;102154.44;5070565;28;20374;-57
2022/05/28 10:19:53;;;;;;;;;;;;;;;15.51;50.55;102148.53;5072763;28;19925;-56
2022/05/28 10:22:19;;;;;;;;;;;;;;;15.21;48.82;102143.59;5075501;28;19920;-57
2022/05/28 10:24:47;;;;;;;;;;;;;;;15.36;49.66;102145.66;5091092;28;19916;-56
2022/05/28 10:27:24;;;;;;;;;;;;;;;15.51;49.14;102132.50;5082267;28;19970;-56
2022/05/28 10:29:50;;;;;;;;;;;;;;;15.66;48.89;102130.88;5071203;28;19951;-57
2022/05/28 10:32:26;;;;;;;;;;;;;;;15.95;48.01;102134.97;5078970;28;19987;-57
2022/05/28 10:34:59;;;;;;;;;;;;;;;16.10;46.49;102135.13;5060605;28;19962;-57
2022/05/28 10:37:24;;;;;;;;;;;;;;;16.09;45.87;102135.31;5086451;28;20019;-56
2022/05/28 10:39:49;;;;;;;;;;;;;;;15.86;46.49;102142.13;5072354;28;19934;-57
2022/05/28 10:42:16;;;;;;;;;;;;;;;15.99;45.77;102138.16;5072112;28;19925;-56
2022/05/28 10:44:42;;;;;;;;;;;;;;;15.90;45.96;102137.28;5073428;28;20270;-57
2022/05/28 10:47:27;;;;;;;;;;;;;;;16.08;45.52;102139.00;5074581;28;19920;-57
2022/05/28 10:50:01;;;;;;;;;;;;;;;16.20;44.83;102140.34;5067102;28;19921;-56
2022/05/28 10:52:47;;;;;;;;;;;;;;;16.10;45.28;102139.66;5071800;28;19935;-57
2022/05/28 10:55:18;;;;;;;;;;;;;;;16.18;45.33;102133.47;5072840;28;19916;-57
2022/05/28 10:57:47;;;;;;;;;;;;;;;16.53;44.09;102126.91;5071530;28;19954;-57
2022/05/28 11:00:15;;;;;;;;;;;;;;;16.68;43.16;102128.91;5072388;28;19917;-57
2022/05/28 11:03:04;;;;;;;;;;;;;;;16.63;44.34;102131.25;5072876;28;19970;-57
2022/05/28 11:05:44;;;;;;;;;;;;;;;16.69;43.32;102130.59;5090743;28;19924;-56
2022/05/28 11:08:15;;;;;;;;;;;;;;;16.84;44.13;102121.84;5077530;28;19928;-57
2022/05/28 11:10:46;;;;;;;;;;;;;;;16.96;43.64;102125.81;5070299;28;19930;-57
2022/05/28 11:13:23;;;;;;;;;;;;;;;17.08;43.79;102119.09;5086068;28;20329;-57
2022/05/28 11:16:12;;;;;;;;;;;;;;;17.07;41.88;102128.16;5060484;28;20349;-57
2022/05/28 11:18:56;;;;;;;;;;;;;;;16.62;42.26;102140.31;5064030;28;19920;-57
2022/05/28 11:21:31;;;;;;;;;;;;;;;16.37;42.84;102137.63;5070842;28;19951;-58
2022/05/28 11:24:02;;;;;;;;;;;;;;;16.40;40.96;102129.28;5072741;28;19970;-57
2022/05/28 11:26:36;;;;;;;;;;;;;;;16.36;42.81;102117.22;5068113;28;19927;-59
2022/05/28 11:29:04;;;;;;;;;;;;;;;16.80;42.36;102114.16;5069063;28;19920;-58
2022/05/28 11:31:29;;;;;;;;;;;;;;;16.86;40.90;102109.09;5070042;28;20446;-58
2022/05/28 11:33:54;;;;;;;;;;;;;;;16.65;42.28;102124.72;5069094;28;20011;-58
2022/05/28 11:36:26;;;;;;;;;;;;;;;16.43;42.26;102110.19;5065598;28;19921;-58
2022/05/28 11:39:02;;;;;;;;;;;;;;;16.58;42.53;102106.84;5059468;28;20321;-58
2022/05/28 11:41:27;;;;;;;;;;;;;;;16.87;41.71;102110.78;5068222;28;19929;-58
2022/05/28 11:43:59;;;;;;;;;;;;;;;16.94;41.79;102107.22;5078373;28;19942;-58
2022/05/28 11:46:28;;;;;;;;;;;;;;;16.84;41.09;102103.06;5071842;28;19929;-58
2022/05/28 11:51:49;;;;;;;;;;;;;;;16.68;41.49;102112.84;5069783;28;19928;-58
2022/05/28 11:54:33;;;;;;;;;;;;;;;16.53;42.61;102100.13;5072214;28;20279;-57
2022/05/28 11:57:01;;;;;;;;;;;;;;;16.76;42.67;102107.47;5071748;28;19920;-57
2022/05/28 11:59:27;;;;;;;;;;;;;;;17.02;41.61;102093.00;5071603;28;19964;-57
2022/05/28 12:02:02;;;;;;;;;;;;;;;17.17;41.25;102094.97;5072051;28;19971;-58
2022/05/28 12:04:30;;;;;;;;;;;;;;;17.22;41.26;102087.19;5081840;28;19970;-57
2022/05/28 12:06:56;;;;;;;;;;;;;;;17.08;40.84;102092.28;5074564;28;19952;-57
2022/05/28 12:09:25;;;;;;;;;;;;;;;16.96;41.37;102088.28;5071404;28;20453;-57
2022/05/28 12:11:50;;;;;;;;;;;;;;;17.32;40.45;102074.41;5082101;28;19952;-58
2022/05/28 12:14:34;;;;;;;;;;;;;;;17.40;41.41;102083.41;5081717;28;19955;-58
2022/05/28 12:17:29;;;;;;;;;;;;;;;17.55;40.55;102086.19;5070657;28;20406;-58
2022/05/28 12:19:56;;;;;;;;;;;;;;;17.40;40.87;102076.22;5057315;28;19916;-58
2022/05/28 12:22:22;;;;;;;;;;;;;;;17.45;40.97;102079.22;5071723;28;20005;-58
2022/05/28 12:24:54;;;;;;;;;;;;;;;17.64;41.01;102078.91;5087981;28;19916;-59
2022/05/28 12:27:22;;;;;;;;;;;;;;;17.59;40.92;102074.94;5066256;28;19928;-60
2022/05/28 12:29:58;;;;;;;;;;;;;;;17.77;41.64;102068.44;5072051;28;19916;-58
2022/05/28 12:32:25;;;;;;;;;;;;;;;17.87;41.09;102063.66;5069750;28;19940;-58
2022/05/28 12:35:23;;;;;;;;;;;;;;;17.95;41.32;102059.25;5077126;28;19952;-58
2022/05/28 12:37:51;;;;;;;;;;;;;;;18.02;40.84;102068.25;5076470;28;20003;-58
2022/05/28 12:40:43;;;;;;;;;;;;;;;17.92;39.86;102076.53;5070147;28;20279;-57
2022/05/28 12:43:13;;;;;;;;;;;;;;;17.72;38.53;102076.19;5041254;28;19921;-58
2022/05/28 12:45:39;;;;;;;;;;;;;;;17.20;40.40;102070.47;5072933;28;19916;-58
2022/05/28 12:48:25;;;;;;;;;;;;;;;17.07;40.75;102066.50;5074997;28;19928;-58
2022/05/28 12:50:59;;;;;;;;;;;;;;;17.08;41.70;102054.78;5074066;28;20271;-58